createdAt,value
2022-09-16T00:00:00.434Z,12.6
2022-09-16T00:01:00.328Z,12.6
2022-09-16T00:02:00.268Z,12.6
2022-09-16T00:03:00.327Z,12.6
2022-09-16T00:04:00.367Z,12.6
2022-09-16T00:05:00.437Z,12.6
2022-09-16T00:06:00.340Z,12.6
2022-09-16T00:07:00.218Z,12.6
2022-09-16T00:08:00.407Z,12.6
2022-09-16T00:09:00.557Z,12.6
2022-09-16T00:10:00.271Z,12.6
2022-09-16T00:11:01.469Z,12.6
2022-09-16T00:12:00.319Z,12.6
2022-09-16T00:13:00.565Z,12.6
2022-09-16T00:14:00.951Z,12.6
2022-09-16T00:15:00.262Z,12.6
2022-09-16T00:16:00.746Z,12.6
2022-09-16T00:17:00.242Z,12.6
2022-09-16T00:18:00.236Z,12.6
2022-09-16T00:19:00.470Z,12.6
2022-09-16T00:20:00.634Z,12.6
2022-09-16T00:21:00.223Z,12.6
2022-09-16T00:22:00.299Z,12.6
2022-09-16T00:23:00.221Z,12.6
2022-09-16T00:24:00.308Z,12.6
2022-09-16T00:25:00.372Z,12.5
2022-09-16T00:26:00.311Z,12.5
2022-09-16T00:27:00.233Z,12.5
2022-09-16T00:28:00.359Z,12.5
2022-09-16T00:29:00.216Z,12.5
2022-09-16T00:30:00.492Z,12.5
2022-09-16T00:31:01.675Z,12.5
2022-09-16T00:32:00.431Z,12.6
2022-09-16T00:33:00.239Z,12.6
2022-09-16T00:34:00.276Z,12.6
2022-09-16T00:35:00.337Z,12.6
2022-09-16T00:36:05.504Z,12.6
2022-09-16T00:37:00.244Z,12.6
2022-09-16T00:38:00.238Z,12.6
2022-09-16T00:39:00.329Z,12.6
2022-09-16T00:40:00.424Z,12.6
2022-09-16T00:41:00.416Z,12.6
2022-09-16T00:42:00.924Z,12.6
2022-09-16T00:43:00.216Z,12.6
2022-09-16T00:44:02.479Z,12.6
2022-09-16T00:45:04.117Z,12.6
2022-09-16T00:46:04.073Z,12.6
2022-09-16T00:47:00.405Z,12.6
2022-09-16T00:48:05.189Z,12.6
2022-09-16T00:49:08.159Z,12.6
2022-09-16T00:50:12.987Z,12.6
2022-09-16T00:51:05.671Z,12.5
2022-09-16T00:52:04.422Z,12.5
2022-09-16T00:53:00.990Z,12.5
2022-09-16T00:54:02.886Z,12.5
2022-09-16T00:55:04.876Z,12.5
2022-09-16T00:56:04.997Z,12.5
2022-09-16T00:57:02.026Z,12.5
2022-09-16T00:58:17.713Z,12.5
2022-09-16T00:59:05.042Z,12.5
2022-09-16T01:00:00.787Z,12.5
2022-09-16T01:01:02.948Z,12.5
2022-09-16T01:02:06.106Z,12.5
2022-09-16T01:03:00.249Z,12.5
2022-09-16T01:04:04.773Z,12.5
2022-09-16T01:05:05.568Z,12.5
2022-09-16T01:06:01.832Z,12.5
2022-09-16T01:07:00.811Z,12.5
2022-09-16T01:08:00.572Z,12.5
2022-09-16T01:09:01.437Z,12.5
2022-09-16T01:10:00.263Z,12.5
2022-09-16T01:11:00.523Z,12.5
2022-09-16T01:12:00.488Z,12.6
2022-09-16T01:13:05.220Z,12.6
2022-09-16T01:14:01.610Z,12.6
2022-09-16T01:15:01.920Z,12.6
2022-09-16T01:16:07.224Z,12.6
2022-09-16T01:17:14.463Z,12.6
2022-09-16T01:18:04.549Z,12.6
2022-09-16T01:19:16.147Z,12.6
2022-09-16T01:20:11.201Z,12.6
2022-09-16T01:21:11.211Z,12.6
2022-09-16T01:22:00.217Z,12.6
2022-09-16T01:23:17.505Z,12.6
2022-09-16T01:24:10.163Z,12.6
2022-09-16T01:25:20.149Z,12.6
2022-09-16T01:26:10.605Z,12.6
2022-09-16T01:27:17.689Z,12.6
2022-09-16T01:28:20.133Z,12.6
2022-09-16T01:29:13.428Z,12.6
2022-09-16T01:30:13.440Z,12.6
2022-09-16T01:31:11.237Z,12.6
2022-09-16T01:32:11.451Z,12.6
2022-09-16T01:33:02.470Z,12.6
2022-09-16T01:34:17.530Z,12.6
2022-09-16T01:35:06.859Z,12.6
2022-09-16T01:36:19.442Z,12.7
2022-09-16T01:37:07.211Z,12.7
2022-09-16T01:38:18.605Z,12.7
2022-09-16T01:39:06.717Z,12.7
2022-09-16T01:40:20.161Z,12.7
2022-09-16T01:41:04.510Z,12.7
2022-09-16T01:42:13.633Z,12.7
2022-09-16T01:43:10.176Z,12.7
2022-09-16T01:44:00.206Z,12.7
2022-09-16T01:45:20.126Z,12.7
2022-09-16T01:46:10.214Z,12.7
2022-09-16T01:47:06.609Z,12.7
2022-09-16T01:48:18.317Z,12.7
2022-09-16T01:49:09.672Z,12.7
2022-09-16T01:50:07.076Z,12.7
2022-09-16T01:51:07.235Z,12.7
2022-09-16T01:52:15.702Z,12.7
2022-09-16T01:53:10.166Z,12.7
2022-09-16T01:54:10.162Z,12.7
2022-09-16T01:55:04.407Z,12.7
2022-09-16T01:56:10.165Z,12.7
2022-09-16T01:57:10.174Z,12.7
2022-09-16T01:58:15.758Z,12.6
2022-09-16T01:59:08.519Z,12.6
2022-09-16T02:00:07.891Z,12.6
2022-09-16T02:01:08.475Z,12.7
2022-09-16T02:02:08.149Z,12.7
2022-09-16T02:03:06.645Z,12.7
2022-09-16T02:04:08.075Z,12.7
2022-09-16T02:05:04.822Z,12.8
2022-09-16T02:06:07.326Z,12.8
2022-09-16T02:07:02.891Z,12.8
2022-09-16T02:08:05.306Z,12.8
2022-09-16T02:09:07.009Z,12.8
2022-09-16T02:10:09.183Z,12.8
2022-09-16T02:11:05.855Z,12.8
2022-09-16T02:12:04.430Z,12.8
2022-09-16T02:13:07.736Z,12.8
2022-09-16T02:14:11.176Z,12.8
2022-09-16T02:15:06.167Z,12.8
2022-09-16T02:16:05.986Z,12.9
2022-09-16T02:17:05.591Z,12.9
2022-09-16T02:18:06.373Z,12.9
2022-09-16T02:19:07.480Z,12.8
2022-09-16T02:20:06.764Z,12.8
2022-09-16T02:21:04.672Z,12.8
2022-09-16T02:22:05.754Z,12.8
2022-09-16T02:23:09.460Z,12.8
2022-09-16T02:24:06.609Z,12.8
2022-09-16T02:25:03.957Z,12.8
2022-09-16T02:26:03.050Z,12.8
2022-09-16T02:27:04.700Z,12.8
2022-09-16T02:28:04.360Z,12.8
2022-09-16T02:29:02.319Z,12.8
2022-09-16T02:30:05.359Z,12.8
2022-09-16T02:31:06.158Z,12.8
2022-09-16T02:32:04.106Z,12.8
2022-09-16T02:33:06.563Z,12.8
2022-09-16T02:34:06.336Z,12.7
2022-09-16T02:35:02.086Z,12.7
2022-09-16T02:36:02.202Z,12.7
2022-09-16T02:37:10.345Z,12.7
2022-09-16T02:38:06.299Z,12.7
2022-09-16T02:39:07.712Z,12.7
2022-09-16T02:40:07.604Z,12.8
2022-09-16T02:41:01.348Z,12.8
2022-09-16T02:42:01.110Z,12.8
2022-09-16T02:43:01.242Z,12.8
2022-09-16T02:44:01.344Z,12.8
2022-09-16T02:45:02.346Z,12.8
2022-09-16T02:46:10.512Z,12.8
2022-09-16T02:47:09.701Z,12.8
2022-09-16T02:48:06.996Z,12.8
2022-09-16T02:49:12.777Z,12.7
2022-09-16T02:50:14.467Z,12.7
2022-09-16T02:51:12.435Z,12.7
2022-09-16T02:52:20.130Z,12.7
2022-09-16T02:53:05.602Z,12.7
2022-09-16T02:54:10.191Z,12.7
2022-09-16T02:55:20.152Z,12.7
2022-09-16T02:56:06.607Z,12.7
2022-09-16T02:57:00.350Z,12.7
2022-09-16T02:58:00.337Z,12.7
2022-09-16T02:59:02.197Z,12.7
2022-09-16T03:00:00.400Z,12.7
2022-09-16T03:01:01.239Z,12.7
2022-09-16T03:02:00.386Z,12.7
2022-09-16T03:03:00.408Z,12.7
2022-09-16T03:04:00.428Z,12.7
2022-09-16T03:05:00.796Z,12.6
2022-09-16T03:06:09.807Z,12.6
2022-09-16T03:07:03.197Z,12.6
2022-09-16T03:08:00.476Z,12.6
2022-09-16T03:09:02.556Z,12.6
2022-09-16T03:10:01.432Z,12.6
2022-09-16T03:11:08.845Z,12.6
2022-09-16T03:12:10.198Z,12.6
2022-09-16T03:13:11.011Z,12.6
2022-09-16T03:14:20.123Z,12.6
2022-09-16T03:15:20.125Z,12.6
2022-09-16T03:16:10.210Z,12.6
2022-09-16T03:17:20.147Z,12.6
2022-09-16T03:18:10.056Z,12.6
2022-09-16T03:19:11.665Z,12.6
2022-09-16T03:20:11.477Z,12.6
2022-09-16T03:21:20.135Z,12.5
2022-09-16T03:22:20.119Z,12.5
2022-09-16T03:23:11.042Z,12.5
2022-09-16T03:24:10.165Z,12.4
2022-09-16T03:25:11.917Z,12.4
2022-09-16T03:26:10.165Z,12.3
2022-09-16T03:27:05.738Z,12.3
2022-09-16T03:28:11.520Z,12.2
2022-09-16T03:29:20.129Z,12.2
2022-09-16T03:30:06.396Z,12.2
2022-09-16T03:31:19.913Z,12.1
2022-09-16T03:32:09.459Z,12.1
2022-09-16T03:33:12.633Z,12.1
2022-09-16T03:34:13.720Z,12.1
2022-09-16T03:35:06.503Z,12.1
2022-09-16T03:36:04.519Z,12.1
2022-09-16T03:37:11.610Z,12.1
2022-09-16T03:38:01.984Z,12.1
2022-09-16T03:39:02.220Z,12.1
2022-09-16T03:40:07.106Z,12.1
2022-09-16T03:41:02.393Z,12.1
2022-09-16T03:42:01.809Z,12.1
2022-09-16T03:43:08.883Z,12.1
2022-09-16T03:44:04.025Z,12.1
2022-09-16T03:45:00.285Z,12.0
2022-09-16T03:46:00.386Z,12.1
2022-09-16T03:47:01.305Z,12.0
2022-09-16T03:48:00.435Z,12.0
2022-09-16T03:49:00.387Z,12.0
2022-09-16T03:50:00.281Z,12.0
2022-09-16T03:51:00.251Z,12.0
2022-09-16T03:52:00.253Z,12.0
2022-09-16T03:53:00.581Z,12.0
2022-09-16T03:54:00.233Z,12.0
2022-09-16T03:55:00.255Z,12.0
2022-09-16T03:56:00.360Z,12.0
2022-09-16T03:57:00.648Z,12.0
2022-09-16T03:58:00.224Z,12.0
2022-09-16T03:59:00.223Z,12.0
2022-09-16T04:00:00.372Z,12.0
2022-09-16T04:01:00.509Z,12.0
2022-09-16T04:02:00.318Z,12.0
2022-09-16T04:03:00.411Z,12.0
2022-09-16T04:04:00.381Z,12.0
2022-09-16T04:05:00.265Z,12.0
2022-09-16T04:06:00.210Z,12.0
2022-09-16T04:07:00.254Z,12.0
2022-09-16T04:08:00.287Z,12.0
2022-09-16T04:09:02.980Z,12.1
2022-09-16T04:10:00.457Z,12.0
2022-09-16T04:11:02.569Z,12.0
2022-09-16T04:12:00.429Z,12.0
2022-09-16T04:13:00.226Z,12.0
2022-09-16T04:14:00.567Z,12.0
2022-09-16T04:15:01.139Z,12.0
2022-09-16T04:16:01.039Z,12.0
2022-09-16T04:17:00.719Z,12.0
2022-09-16T04:18:00.238Z,12.0
2022-09-16T04:19:00.367Z,12.0
2022-09-16T04:20:00.394Z,12.0
2022-09-16T04:21:02.428Z,12.0
2022-09-16T04:22:00.274Z,12.0
2022-09-16T04:23:00.252Z,12.0
2022-09-16T04:24:00.530Z,12.0
2022-09-16T04:25:00.245Z,12.0
2022-09-16T04:26:01.653Z,12.0
2022-09-16T04:27:00.533Z,12.0
2022-09-16T04:28:00.597Z,12.0
2022-09-16T04:29:00.235Z,12.0
2022-09-16T04:30:00.273Z,12.0
2022-09-16T04:31:02.380Z,12.1
2022-09-16T04:32:00.370Z,12.1
2022-09-16T04:33:00.208Z,12.1
2022-09-16T04:34:01.349Z,12.1
2022-09-16T04:35:00.234Z,12.1
2022-09-16T04:36:01.876Z,12.1
2022-09-16T04:37:00.234Z,12.1
2022-09-16T04:38:00.228Z,12.2
2022-09-16T04:39:00.248Z,12.2
2022-09-16T04:40:04.432Z,12.2
2022-09-16T04:41:06.251Z,12.1
2022-09-16T04:42:00.258Z,12.0
2022-09-16T04:43:00.229Z,11.9
2022-09-16T04:44:00.356Z,11.8
2022-09-16T04:45:00.426Z,11.8
2022-09-16T04:46:00.933Z,11.7
2022-09-16T04:47:00.214Z,11.7
2022-09-16T04:48:00.293Z,11.6
2022-09-16T04:49:00.226Z,11.7
2022-09-16T04:50:00.222Z,11.6
2022-09-16T04:51:02.193Z,11.6
2022-09-16T04:52:00.360Z,11.5
2022-09-16T04:53:00.223Z,11.5
2022-09-16T04:54:00.312Z,11.5
2022-09-16T04:55:00.261Z,11.5
2022-09-16T04:56:10.984Z,11.5
2022-09-16T04:57:00.245Z,11.5
2022-09-16T04:58:00.218Z,11.4
2022-09-16T04:59:02.981Z,11.4
2022-09-16T05:00:00.443Z,11.4
2022-09-16T05:01:09.278Z,11.4
2022-09-16T05:02:00.351Z,11.4
2022-09-16T05:03:00.297Z,11.4
2022-09-16T05:04:02.930Z,11.4
2022-09-16T05:05:00.242Z,11.4
2022-09-16T05:06:05.287Z,11.3
2022-09-16T05:07:00.214Z,11.3
2022-09-16T05:08:00.348Z,11.3
2022-09-16T05:09:00.805Z,11.3
2022-09-16T05:10:00.220Z,11.3
2022-09-16T05:11:02.254Z,11.3
2022-09-16T05:12:00.383Z,11.3
2022-09-16T05:13:00.216Z,11.3
2022-09-16T05:14:01.726Z,11.3
2022-09-16T05:15:00.409Z,11.4
2022-09-16T05:16:01.767Z,11.4
2022-09-16T05:17:00.210Z,11.4
2022-09-16T05:18:00.212Z,11.5
2022-09-16T05:19:01.641Z,11.5
2022-09-16T05:20:00.494Z,11.6
2022-09-16T05:21:01.838Z,11.7
2022-09-16T05:22:00.208Z,11.9
2022-09-16T05:23:00.222Z,12.0
2022-09-16T05:24:01.870Z,12.1
2022-09-16T05:25:00.288Z,12.2
2022-09-16T05:26:04.331Z,12.3
2022-09-16T05:27:00.229Z,12.3
2022-09-16T05:28:00.333Z,12.3
2022-09-16T05:29:02.773Z,12.3
2022-09-16T05:30:00.240Z,12.3
2022-09-16T05:31:11.438Z,12.3
2022-09-16T05:32:00.373Z,12.3
2022-09-16T05:33:00.207Z,12.3
2022-09-16T05:34:01.785Z,12.3
2022-09-16T05:35:00.290Z,12.5
2022-09-16T05:36:05.406Z,12.6
2022-09-16T05:37:00.492Z,12.9
2022-09-16T05:38:00.311Z,13.0
2022-09-16T05:39:22.321Z,13.2
2022-09-16T05:40:00.424Z,13.4
2022-09-16T05:41:01.517Z,13.6
2022-09-16T05:42:00.250Z,13.6
2022-09-16T05:43:00.962Z,13.7
2022-09-16T05:44:00.786Z,13.7
2022-09-16T05:45:00.244Z,13.7
2022-09-16T05:46:00.414Z,13.5
2022-09-16T05:47:00.250Z,13.5
2022-09-16T05:48:00.308Z,13.5
2022-09-16T05:49:00.647Z,13.6
2022-09-16T05:50:00.219Z,13.6
2022-09-16T05:51:03.212Z,13.6
2022-09-16T05:52:00.333Z,13.7
2022-09-16T05:53:00.225Z,13.7
2022-09-16T05:54:00.221Z,13.8
2022-09-16T05:55:00.272Z,13.8
2022-09-16T05:56:05.834Z,13.8
2022-09-16T05:57:04.508Z,13.8
2022-09-16T05:58:00.216Z,13.8
2022-09-16T05:59:00.289Z,13.8
2022-09-16T06:00:00.348Z,13.8
2022-09-16T06:01:05.771Z,13.8
2022-09-16T06:02:00.417Z,13.8
2022-09-16T06:03:00.205Z,13.8
2022-09-16T06:04:02.702Z,13.9
2022-09-16T06:05:00.235Z,13.8
2022-09-16T06:06:01.201Z,13.8
2022-09-16T06:07:00.216Z,13.8
2022-09-16T06:08:00.366Z,13.9
2022-09-16T06:09:06.314Z,13.9
2022-09-16T06:10:00.220Z,13.9
2022-09-16T06:11:01.039Z,13.9
2022-09-16T06:12:02.216Z,13.9
2022-09-16T06:13:00.210Z,13.9
2022-09-16T06:14:00.259Z,13.8
2022-09-16T06:15:00.252Z,13.7
2022-09-16T06:16:00.764Z,13.7
2022-09-16T06:17:01.414Z,13.8
2022-09-16T06:18:06.087Z,13.8
2022-09-16T06:19:01.921Z,13.8
2022-09-16T06:20:00.288Z,13.8
2022-09-16T06:21:04.532Z,13.8
2022-09-16T06:22:00.211Z,13.9
2022-09-16T06:23:00.228Z,13.9
2022-09-16T06:24:00.361Z,13.9
2022-09-16T06:25:00.236Z,13.9
2022-09-16T06:26:01.953Z,13.9
2022-09-16T06:27:00.235Z,13.9
2022-09-16T06:28:00.353Z,14.0
2022-09-16T06:29:00.426Z,14.1
2022-09-16T06:30:00.222Z,14.2
2022-09-16T06:31:06.527Z,14.3
2022-09-16T06:32:00.338Z,14.6
2022-09-16T06:33:00.410Z,14.8
2022-09-16T06:34:00.268Z,15.1
2022-09-16T06:35:00.328Z,15.3
2022-09-16T06:36:03.411Z,15.7
2022-09-16T06:37:00.238Z,16.0
2022-09-16T06:38:01.019Z,16.4
2022-09-16T06:39:00.408Z,16.7
2022-09-16T06:40:00.446Z,17.0
2022-09-16T06:41:01.921Z,16.9
2022-09-16T06:42:00.225Z,17.2
2022-09-16T06:43:00.437Z,17.6
2022-09-16T06:44:00.623Z,17.8
2022-09-16T06:45:00.283Z,18.0
2022-09-16T06:46:03.589Z,18.3
2022-09-16T06:47:00.215Z,18.5
2022-09-16T06:48:00.363Z,18.8
2022-09-16T06:49:04.537Z,19.0
2022-09-16T06:50:00.946Z,19.2
2022-09-16T06:51:03.455Z,19.0
2022-09-16T06:52:00.319Z,19.1
2022-09-16T06:53:00.219Z,19.4
2022-09-16T06:54:03.084Z,19.5
2022-09-16T06:55:00.379Z,19.6
2022-09-16T06:56:03.502Z,19.6
2022-09-16T06:57:00.237Z,19.8
2022-09-16T06:58:00.310Z,19.9
2022-09-16T06:59:00.224Z,19.7
2022-09-16T07:00:00.356Z,19.3
2022-09-16T07:01:05.604Z,19.0
2022-09-16T07:02:00.432Z,18.8
2022-09-16T07:03:01.396Z,18.6
2022-09-16T07:04:03.334Z,18.1
2022-09-16T07:05:00.231Z,18.0
2022-09-16T07:06:00.778Z,17.8
2022-09-16T07:07:10.630Z,17.6
2022-09-16T07:08:00.335Z,17.6
2022-09-16T07:09:00.328Z,17.6
2022-09-16T07:10:00.227Z,17.1
2022-09-16T07:11:03.730Z,16.9
2022-09-16T07:12:00.505Z,16.8
2022-09-16T07:13:00.238Z,16.7
2022-09-16T07:14:00.240Z,16.5
2022-09-16T07:15:00.259Z,16.4
2022-09-16T07:16:12.893Z,16.3
2022-09-16T07:17:01.180Z,16.2
2022-09-16T07:18:00.225Z,16.2
2022-09-16T07:19:01.332Z,16.2
2022-09-16T07:20:00.380Z,16.2
2022-09-16T07:21:02.219Z,16.2
2022-09-16T07:22:00.217Z,16.3
2022-09-16T07:23:01.746Z,16.3
2022-09-16T07:24:01.567Z,16.5
2022-09-16T07:25:00.241Z,16.5
2022-09-16T07:26:02.213Z,16.6
2022-09-16T07:27:00.231Z,16.6
2022-09-16T07:28:00.356Z,16.8
2022-09-16T07:29:02.170Z,16.8
2022-09-16T07:30:00.523Z,16.5
2022-09-16T07:31:02.765Z,16.5
2022-09-16T07:32:00.334Z,16.5
2022-09-16T07:33:00.239Z,16.5
2022-09-16T07:34:04.063Z,16.4
2022-09-16T07:35:00.261Z,16.4
2022-09-16T07:36:01.267Z,16.2
2022-09-16T07:37:00.216Z,16.2
2022-09-16T07:38:00.221Z,16.2
2022-09-16T07:39:00.872Z,16.2
2022-09-16T07:40:00.390Z,16.1
2022-09-16T07:41:12.291Z,16.0
2022-09-16T07:42:05.206Z,16.0
2022-09-16T07:43:00.217Z,15.9
2022-09-16T07:44:01.271Z,15.9
2022-09-16T07:45:00.265Z,15.8
2022-09-16T07:46:00.608Z,15.7
2022-09-16T07:47:00.298Z,15.8
2022-09-16T07:48:00.356Z,15.8
2022-09-16T07:49:01.995Z,15.7
2022-09-16T07:50:00.475Z,15.6
2022-09-16T07:51:02.837Z,15.5
2022-09-16T07:52:00.486Z,15.5
2022-09-16T07:53:00.230Z,15.5
2022-09-16T07:54:03.272Z,15.5
2022-09-16T07:55:00.359Z,15.4
2022-09-16T07:56:02.333Z,15.4
2022-09-16T07:57:00.246Z,15.4
2022-09-16T07:58:00.262Z,15.3
2022-09-16T07:59:01.415Z,15.4
2022-09-16T08:00:00.359Z,15.4
2022-09-16T08:01:04.298Z,15.4
2022-09-16T08:02:00.376Z,15.4
2022-09-16T08:03:00.274Z,15.4
2022-09-16T08:04:01.173Z,15.3
2022-09-16T08:05:00.232Z,15.3
2022-09-16T08:06:01.561Z,15.3
2022-09-16T08:07:00.253Z,15.3
2022-09-16T08:08:00.670Z,15.3
2022-09-16T08:09:10.096Z,15.3
2022-09-16T08:10:00.293Z,15.4
2022-09-16T08:11:00.977Z,15.4
2022-09-16T08:12:01.800Z,15.5
2022-09-16T08:13:00.223Z,15.5
2022-09-16T08:14:00.781Z,15.3
2022-09-16T08:15:00.271Z,15.4
2022-09-16T08:16:04.128Z,15.5
2022-09-16T08:17:00.283Z,15.5
2022-09-16T08:18:00.270Z,15.5
2022-09-16T08:19:00.213Z,15.6
2022-09-16T08:20:00.285Z,15.8
2022-09-16T08:21:10.235Z,15.9
2022-09-16T08:22:00.262Z,15.9
2022-09-16T08:23:00.218Z,16.0
2022-09-16T08:24:00.326Z,16.0
2022-09-16T08:25:00.370Z,16.1
2022-09-16T08:26:00.443Z,16.1
2022-09-16T08:27:00.324Z,16.3
2022-09-16T08:28:00.339Z,16.7
2022-09-16T08:29:09.737Z,17.2
2022-09-16T08:30:00.284Z,17.4
2022-09-16T08:31:01.205Z,17.7
2022-09-16T08:32:00.548Z,18.0
2022-09-16T08:33:00.215Z,18.3
2022-09-16T08:34:00.214Z,18.5
2022-09-16T08:35:00.440Z,18.6
2022-09-16T08:36:01.027Z,18.3
2022-09-16T08:37:00.231Z,18.2
2022-09-16T08:38:00.782Z,17.9
2022-09-16T08:39:00.624Z,17.7
2022-09-16T08:40:01.150Z,17.2
2022-09-16T08:41:20.127Z,16.7
2022-09-16T08:42:23.273Z,16.6
2022-09-16T08:43:12.194Z,16.6
2022-09-16T08:44:06.737Z,16.3
2022-09-16T08:45:16.239Z,16.1
2022-09-16T08:46:11.499Z,16.1
2022-09-16T08:47:04.533Z,16.0
2022-09-16T08:48:20.568Z,16.4
2022-09-16T08:49:10.285Z,16.4
2022-09-16T08:50:03.965Z,16.4
2022-09-16T08:51:01.694Z,16.4
2022-09-16T08:52:07.055Z,16.5
2022-09-16T08:53:03.801Z,16.5
2022-09-16T08:54:05.063Z,16.6
2022-09-16T08:55:05.480Z,16.7
2022-09-16T08:56:04.735Z,16.7
2022-09-16T08:57:03.754Z,16.7
2022-09-16T08:58:06.418Z,16.6
2022-09-16T08:59:04.898Z,16.4
2022-09-16T09:00:05.819Z,16.5
2022-09-16T09:01:09.763Z,16.7
2022-09-16T09:02:20.744Z,16.7
2022-09-16T09:03:17.734Z,16.7
2022-09-16T09:04:00.858Z,16.7
2022-09-16T09:05:01.452Z,16.8
2022-09-16T09:06:03.527Z,17.1
2022-09-16T09:07:20.164Z,17.8
2022-09-16T09:08:20.157Z,17.9
2022-09-16T09:09:17.652Z,18.0
2022-09-16T09:10:19.095Z,18.1
2022-09-16T09:11:17.372Z,18.2
2022-09-16T09:12:10.983Z,18.2
2022-09-16T09:13:19.613Z,18.4
2022-09-16T09:14:17.720Z,18.6
2022-09-16T09:15:11.352Z,18.6
2022-09-16T09:16:16.484Z,18.9
2022-09-16T09:17:11.237Z,18.9
2022-09-16T09:18:15.904Z,19.0
2022-09-16T09:19:17.740Z,19.2
2022-09-16T09:20:11.200Z,19.2
2022-09-16T09:21:17.544Z,19.2
2022-09-16T09:22:10.835Z,19.2
2022-09-16T09:23:08.657Z,19.2
2022-09-16T09:24:15.389Z,19.2
2022-09-16T09:25:19.705Z,18.9
2022-09-16T09:26:07.020Z,18.9
2022-09-16T09:27:13.700Z,18.5
2022-09-16T09:28:17.795Z,18.4
2022-09-16T09:29:10.195Z,18.4
2022-09-16T09:30:07.751Z,18.2
2022-09-16T09:31:13.565Z,18.0
2022-09-16T09:32:13.478Z,17.8
2022-09-16T09:33:27.711Z,17.5
2022-09-16T09:34:10.224Z,17.4
2022-09-16T09:35:17.721Z,17.0
2022-09-16T09:36:11.210Z,17.0
2022-09-16T09:37:20.151Z,17.0
2022-09-16T09:38:18.120Z,16.7
2022-09-16T09:39:10.712Z,16.7
2022-09-16T09:40:10.240Z,16.2
2022-09-16T09:41:17.646Z,15.8
2022-09-16T09:42:20.157Z,15.5
2022-09-16T09:43:13.486Z,15.5
2022-09-16T09:44:18.261Z,15.3
2022-09-16T09:45:04.335Z,15.3
2022-09-16T09:46:00.291Z,15.1
2022-09-16T09:47:04.386Z,15.1
2022-09-16T09:48:08.539Z,15.1
2022-09-16T09:49:10.975Z,15.1
2022-09-16T09:50:12.662Z,15.1
2022-09-16T09:51:05.749Z,15.1
2022-09-16T09:52:11.544Z,15.1
2022-09-16T09:53:10.196Z,15.2
2022-09-16T09:54:11.743Z,15.2
2022-09-16T09:55:16.050Z,15.3
2022-09-16T09:56:14.073Z,15.4
2022-09-16T09:57:13.511Z,15.4
2022-09-16T09:58:15.754Z,15.5
2022-09-16T09:59:20.151Z,15.5
2022-09-16T10:00:05.505Z,15.5
2022-09-16T10:01:00.918Z,15.5
2022-09-16T10:02:00.465Z,15.4
2022-09-16T10:03:04.703Z,15.4
2022-09-16T10:04:00.529Z,15.4
2022-09-16T10:05:00.367Z,15.4
2022-09-16T10:06:00.278Z,15.4
2022-09-16T10:07:00.483Z,15.3
2022-09-16T10:08:13.087Z,15.4
2022-09-16T10:09:00.487Z,15.3
2022-09-16T10:10:11.022Z,15.4
2022-09-16T10:11:02.565Z,15.4
2022-09-16T10:12:00.390Z,15.6
2022-09-16T10:13:10.000Z,15.7
2022-09-16T10:14:01.626Z,15.7
2022-09-16T10:15:00.390Z,15.7
2022-09-16T10:16:15.890Z,15.7
2022-09-16T10:17:02.825Z,15.7
2022-09-16T10:18:01.197Z,15.8
2022-09-16T10:19:06.754Z,15.8
2022-09-16T10:20:02.794Z,15.9
2022-09-16T10:21:03.965Z,15.9
2022-09-16T10:22:17.987Z,16.0
2022-09-16T10:23:04.927Z,16.0
2022-09-16T10:24:00.387Z,16.0
2022-09-16T10:25:03.656Z,16.0
2022-09-16T10:26:05.502Z,16.0
2022-09-16T10:27:11.304Z,16.0
2022-09-16T10:28:03.896Z,16.0
2022-09-16T10:29:03.145Z,16.0
2022-09-16T10:30:04.492Z,15.9
2022-09-16T10:31:01.445Z,15.9
2022-09-16T10:32:05.230Z,15.9
2022-09-16T10:33:10.199Z,16.0
2022-09-16T10:34:01.249Z,16.0
2022-09-16T10:35:05.779Z,16.1
2022-09-16T10:36:04.881Z,16.1
2022-09-16T10:37:12.192Z,16.1
2022-09-16T10:38:05.408Z,16.1
2022-09-16T10:39:05.193Z,16.1
2022-09-16T10:40:00.760Z,16.1
2022-09-16T10:41:06.073Z,16.1
2022-09-16T10:42:01.732Z,16.2
2022-09-16T10:43:04.295Z,16.2
2022-09-16T10:44:05.846Z,16.3
2022-09-16T10:45:12.865Z,16.3
2022-09-16T10:46:00.451Z,16.4
2022-09-16T10:47:06.804Z,16.4
2022-09-16T10:48:07.270Z,16.4
2022-09-16T10:49:08.983Z,16.5
2022-09-16T10:50:02.674Z,16.6
2022-09-16T10:51:02.911Z,16.6
2022-09-16T10:52:14.256Z,16.8
2022-09-16T10:53:00.349Z,16.8
2022-09-16T10:54:04.432Z,16.8
2022-09-16T10:55:11.749Z,16.8
2022-09-16T10:56:03.844Z,16.7
2022-09-16T10:57:00.308Z,16.6
2022-09-16T10:58:14.903Z,16.6
2022-09-16T10:59:02.081Z,16.6
2022-09-16T11:00:19.125Z,16.5
2022-09-16T11:01:13.289Z,16.5
2022-09-16T11:02:10.373Z,16.5
2022-09-16T11:03:17.769Z,16.7
2022-09-16T11:04:10.183Z,16.7
2022-09-16T11:05:07.183Z,16.7
2022-09-16T11:06:19.134Z,16.8
2022-09-16T11:07:08.805Z,16.8
2022-09-16T11:08:20.178Z,16.9
2022-09-16T11:09:11.247Z,16.9
2022-09-16T11:10:08.843Z,17.0
2022-09-16T11:11:11.911Z,17.0
2022-09-16T11:12:18.892Z,17.1
2022-09-16T11:13:18.813Z,17.1
2022-09-16T11:14:20.190Z,17.1
2022-09-16T11:15:20.150Z,17.1
2022-09-16T11:16:09.060Z,17.1
2022-09-16T11:17:17.183Z,17.1
2022-09-16T11:18:11.226Z,17.1
2022-09-16T11:19:13.076Z,17.0
2022-09-16T11:20:17.643Z,17.0
2022-09-16T11:21:01.252Z,17.0
2022-09-16T11:22:18.107Z,16.9
2022-09-16T11:23:12.744Z,16.9
2022-09-16T11:24:20.148Z,16.7
2022-09-16T11:25:13.451Z,16.7
2022-09-16T11:26:11.735Z,16.6
2022-09-16T11:27:14.780Z,16.4
2022-09-16T11:28:17.639Z,16.4
2022-09-16T11:29:22.226Z,16.4
2022-09-16T11:30:06.044Z,16.4
2022-09-16T11:31:08.561Z,16.4
2022-09-16T11:32:10.205Z,16.5
2022-09-16T11:34:06.785Z,16.5
2022-09-16T11:35:20.146Z,16.6
2022-09-16T11:36:13.473Z,16.6
2022-09-16T11:37:19.797Z,16.6
2022-09-16T11:38:08.713Z,16.6
2022-09-16T11:39:15.019Z,16.7
2022-09-16T11:40:08.510Z,16.7
2022-09-16T11:41:08.604Z,16.7
2022-09-16T11:42:20.175Z,16.9
2022-09-16T11:43:11.207Z,16.9
2022-09-16T11:44:11.230Z,16.9
2022-09-16T11:45:10.196Z,16.9
2022-09-16T11:46:12.323Z,16.9
2022-09-16T11:47:10.207Z,16.9
2022-09-16T11:48:02.298Z,16.9
2022-09-16T11:49:08.753Z,16.9
2022-09-16T11:50:17.607Z,17.0
2022-09-16T11:51:13.489Z,17.0
2022-09-16T11:52:08.911Z,17.0
2022-09-16T11:53:04.819Z,17.0
2022-09-16T11:54:20.202Z,17.0
2022-09-16T11:55:20.159Z,17.0
2022-09-16T11:56:05.230Z,17.0
2022-09-16T11:57:06.104Z,17.1
2022-09-16T11:58:09.421Z,17.1
2022-09-16T11:59:10.713Z,17.1
2022-09-16T12:00:05.161Z,17.0
2022-09-16T12:01:12.291Z,17.0
2022-09-16T12:02:12.996Z,17.0
2022-09-16T12:03:16.520Z,16.9
2022-09-16T12:04:15.167Z,16.9
2022-09-16T12:05:15.103Z,16.9
2022-09-16T12:06:08.216Z,16.9
2022-09-16T12:07:12.121Z,16.9
2022-09-16T12:08:08.799Z,16.9
2022-09-16T12:09:07.689Z,17.0
2022-09-16T12:10:01.259Z,17.0
2022-09-16T12:12:10.795Z,16.9
2022-09-16T12:13:06.527Z,16.9
2022-09-16T12:14:12.591Z,17.0
2022-09-16T12:15:06.149Z,17.0
2022-09-16T12:16:03.912Z,17.0
2022-09-16T12:17:04.739Z,17.0
2022-09-16T12:18:07.652Z,16.9
2022-09-16T12:19:09.053Z,16.9
2022-09-16T12:20:15.816Z,16.8
2022-09-16T12:21:08.221Z,16.8
2022-09-16T12:22:05.652Z,16.9
2022-09-16T12:23:07.805Z,16.9
2022-09-16T12:24:08.238Z,16.9
2022-09-16T12:25:08.503Z,17.0
2022-09-16T12:26:09.272Z,17.0
2022-09-16T12:27:14.086Z,17.1
2022-09-16T12:28:10.193Z,17.1
2022-09-16T12:29:05.507Z,17.1
2022-09-16T12:30:10.862Z,17.1
2022-09-16T12:31:12.499Z,17.1
2022-09-16T12:32:13.350Z,17.1
2022-09-16T12:33:05.132Z,17.0
2022-09-16T12:34:09.013Z,17.0
2022-09-16T12:35:09.531Z,17.0
2022-09-16T12:36:05.960Z,17.0
2022-09-16T12:37:14.710Z,17.1
2022-09-16T12:38:00.880Z,17.1
2022-09-16T12:39:00.786Z,17.1
2022-09-16T12:40:01.290Z,17.1
2022-09-16T12:41:11.208Z,17.0
2022-09-16T12:42:10.212Z,17.0
2022-09-16T12:43:15.994Z,17.0
2022-09-16T12:44:23.679Z,17.0
2022-09-16T12:45:17.192Z,17.0
2022-09-16T12:46:00.289Z,17.0
2022-09-16T12:47:01.262Z,16.9
2022-09-16T12:48:12.757Z,16.9
2022-09-16T12:49:10.198Z,16.9
2022-09-16T12:50:11.226Z,17.0
2022-09-16T12:51:07.307Z,16.9
2022-09-16T12:52:14.914Z,16.9
2022-09-16T12:53:11.222Z,16.9
2022-09-16T12:54:17.561Z,16.9
2022-09-16T12:55:20.176Z,16.9
2022-09-16T12:56:07.707Z,16.9
2022-09-16T12:57:20.160Z,16.9
2022-09-16T12:58:08.604Z,16.9
2022-09-16T12:59:02.273Z,17.0
2022-09-16T13:00:03.816Z,17.0
2022-09-16T13:01:13.527Z,17.0
2022-09-16T13:02:11.588Z,17.0
2022-09-16T13:03:12.588Z,17.0
2022-09-16T13:04:08.764Z,17.0
2022-09-16T13:05:10.419Z,17.0
2022-09-16T13:06:12.431Z,17.0
2022-09-16T13:07:00.498Z,16.9
2022-09-16T13:09:20.161Z,16.9
2022-09-16T13:10:11.217Z,16.9
2022-09-16T13:12:09.534Z,16.9
2022-09-16T13:12:39.271Z,16.9
2022-09-16T13:13:02.037Z,16.9
2022-09-16T13:14:00.431Z,17.0
2022-09-16T13:15:03.958Z,16.9
2022-09-16T13:16:04.093Z,16.9
2022-09-16T13:17:01.117Z,16.9
2022-09-16T13:18:19.318Z,16.8
2022-09-16T13:19:20.173Z,16.8
2022-09-16T13:20:04.211Z,16.8
2022-09-16T13:21:06.317Z,16.8